Time;durP1;ratioP1;P1;durP2;ratioP2;P2;SDS_P1;SDS_P2;PMS_P1;PMS_P2;Temp;Humidity;BMP_temperature;BMP_pressure;BME280_temperature;BME280_humidity;BME280_pressure;Samples;Min_cycle;Max_cycle;Signal;HPM_P1;HPM_P2
2022/05/13 00:00:53;;;;;;;;;;;16.80;99.90;;;15.89;100.00;95948.78;10502812;28;1973;-71
2022/05/13 00:05:56;;;;;;;;;;;16.80;99.90;;;15.92;100.00;95950.91;10490778;28;1849;-70
2022/05/13 00:10:59;;;;;;;;;;;16.80;99.90;;;15.95;100.00;95960.34;10494724;28;1849;-70
2022/05/13 00:16:04;;;;;;;;;;;16.80;99.90;;;15.94;100.00;95956.81;10496616;28;1759;-70
2022/05/13 00:21:07;;;;;;;;;;;16.80;99.90;;;15.90;100.00;95955.84;10473937;28;2039;-71
2022/05/13 00:26:10;;;;;;;;;;;16.80;99.90;;;15.95;100.00;95953.00;10484980;28;1883;-71
2022/05/13 00:31:15;;;;;;;;;;;16.80;99.90;;;15.99;100.00;95947.78;10500606;28;1801;-70
2022/05/13 00:36:17;;;;;;;;;;;16.80;99.90;;;15.96;100.00;95940.25;10491384;28;1874;-70
2022/05/13 00:41:20;;;;;;;;;;;16.90;99.90;;;16.00;100.00;95941.25;10502789;28;1909;-70
2022/05/13 00:46:23;;;;;;;;;;;16.80;99.90;;;15.97;100.00;95936.47;10532027;28;1951;-69
2022/05/13 00:51:27;;;;;;;;;;;16.80;99.90;;;15.99;100.00;95933.44;10533833;28;1802;-69
2022/05/13 00:56:31;;;;;;;;;;;16.80;99.90;;;16.04;100.00;95933.34;10497151;28;1891;-70
2022/05/13 01:01:34;;;;;;;;;;;16.90;99.90;;;16.07;100.00;95924.56;10510000;28;1938;-70
2022/05/13 01:06:37;;;;;;;;;;;16.90;99.90;;;16.11;100.00;95931.81;10512022;28;1842;-69
2022/05/13 01:11:41;;;;;;;;;;;16.90;99.90;;;16.13;100.00;95928.78;10505036;28;1920;-69
2022/05/13 01:22:14;;;;;;;;;;;16.90;99.90;;;16.11;100.00;95910.13;10487834;28;1978;-69
2022/05/13 01:27:17;;;;;;;;;;;16.90;99.90;;;16.13;100.00;95912.50;10487248;28;1956;-70
2022/05/13 01:32:20;;;;;;;;;;;16.90;99.90;;;16.11;100.00;95917.44;10512667;28;1970;-69
2022/05/13 01:37:24;;;;;;;;;;;16.90;99.90;;;16.13;100.00;95912.50;10508792;28;1936;-69
2022/05/13 01:42:27;;;;;;;;;;;17.00;99.90;;;16.02;100.00;95911.13;10493303;28;1991;-69
2022/05/13 01:47:30;;;;;;;;;;;16.90;99.90;;;15.93;100.00;95919.97;10494797;28;1902;-68
2022/05/13 01:52:33;;;;;;;;;;;16.80;99.90;;;15.87;100.00;95926.63;10503413;28;1800;-69
2022/05/13 01:57:36;;;;;;;;;;;16.80;99.90;;;15.89;100.00;95934.44;10495151;28;1909;-70
2022/05/13 02:07:56;;;;;;;;;;;16.80;99.90;;;15.93;100.00;95930.03;10487734;28;1878;-69
2022/05/13 02:13:00;;;;;;;;;;;16.80;99.90;;;15.91;100.00;95932.25;10504133;28;1865;-70
2022/05/13 02:18:03;;;;;;;;;;;16.80;99.90;;;15.92;100.00;95928.44;10505981;28;1915;-70
2022/05/13 02:23:06;;;;;;;;;;;16.70;99.90;;;15.86;100.00;95926.94;10492584;28;1910;-69
2022/05/13 02:28:09;;;;;;;;;;;16.70;99.90;;;15.84;100.00;95924.53;10504935;28;1855;-69
2022/05/13 02:33:13;;;;;;;;;;;16.70;99.90;;;15.80;100.00;95925.44;10510249;28;1794;-70
2022/05/13 02:38:16;;;;;;;;;;;16.70;99.90;;;15.76;100.00;95935.25;10486209;28;1851;-70
2022/05/13 02:43:19;;;;;;;;;;;16.60;99.90;;;15.82;100.00;95928.63;10493402;28;1910;-70
2022/05/13 02:48:22;;;;;;;;;;;16.70;99.90;;;15.78;100.00;95927.66;10510265;28;1825;-70
2022/05/13 02:53:25;;;;;;;;;;;16.70;99.90;;;15.69;100.00;95927.53;10488884;28;1846;-69
2022/05/13 02:58:29;;;;;;;;;;;16.70;99.90;;;15.47;100.00;95917.38;10502750;28;1768;-69
2022/05/13 03:03:32;;;;;;;;;;;16.50;99.90;;;15.23;100.00;95930.31;10510413;28;1914;-69
2022/05/13 03:08:35;;;;;;;;;;;16.00;99.90;;;15.06;100.00;95923.53;10484446;28;1835;-70
2022/05/13 03:13:39;;;;;;;;;;;15.90;99.90;;;14.98;100.00;95920.72;10488724;28;1780;-70
2022/05/13 03:18:42;;;;;;;;;;;15.80;99.90;;;15.03;100.00;95918.75;10491510;28;1812;-69
2022/05/13 03:23:45;;;;;;;;;;;15.80;99.90;;;15.11;100.00;95919.94;10480976;28;1922;-69
2022/05/13 03:28:48;;;;;;;;;;;15.90;99.90;;;15.17;100.00;95928.78;10499670;28;1842;-70
2022/05/13 03:33:51;;;;;;;;;;;16.00;99.90;;;15.17;100.00;95921.47;10510815;28;1763;-70
2022/05/13 03:38:55;;;;;;;;;;;16.00;99.90;;;15.20;100.00;95915.44;10481937;28;1744;-70
2022/05/13 03:43:58;;;;;;;;;;;16.00;99.90;;;15.24;100.00;95894.78;10484857;28;1950;-70
2022/05/13 03:49:01;;;;;;;;;;;15.90;99.90;;;15.24;100.00;95896.69;10506123;28;1823;-70
2022/05/13 03:54:05;;;;;;;;;;;16.10;99.90;;;15.25;100.00;95892.88;10483436;28;1830;-69
2022/05/13 03:59:08;;;;;;;;;;;16.00;99.90;;;15.26;100.00;95894.50;10504782;28;1966;-70
2022/05/13 04:04:11;;;;;;;;;;;15.90;99.90;;;15.27;100.00;95896.91;10505111;28;1982;-70
2022/05/13 04:09:14;;;;;;;;;;;16.00;99.90;;;15.29;100.00;95899.31;10501272;28;1950;-69
2022/05/13 04:19:38;;;;;;;;;;;16.20;99.90;;;15.40;100.00;95906.16;10491408;28;1959;-70
2022/05/13 04:24:41;;;;;;;;;;;16.10;99.90;;;15.46;100.00;95906.84;10498414;28;2101;-70
2022/05/13 04:29:45;;;;;;;;;;;16.10;99.90;;;15.51;100.00;95902.13;10506821;28;1951;-70
2022/05/13 04:34:48;;;;;;;;;;;16.20;99.90;;;15.68;100.00;95917.81;10503638;28;1884;-69
2022/05/13 04:39:53;;;;;;;;;;;16.30;99.90;;;15.81;100.00;95921.59;10491966;28;1760;-69
2022/05/13 04:44:57;;;;;;;;;;;16.40;99.90;;;15.92;100.00;95931.13;10505632;28;1918;-70
2022/05/13 04:50:00;;;;;;;;;;;16.50;99.90;;;16.00;100.00;95941.25;10486650;28;1843;-69
2022/05/13 04:55:03;;;;;;;;;;;16.60;99.90;;;16.08;100.00;95947.88;10508889;28;1811;-70
2022/05/13 05:00:07;;;;;;;;;;;16.60;99.90;;;16.10;100.00;95945.69;10497999;28;2016;-70
2022/05/13 05:05:11;;;;;;;;;;;16.70;99.90;;;15.99;100.00;95942.38;10505629;28;1937;-70
2022/05/13 05:10:14;;;;;;;;;;;16.80;99.90;;;15.76;100.00;95963.16;10489506;28;1751;-68
2022/05/13 05:15:18;;;;;;;;;;;16.60;99.90;;;15.62;100.00;95967.78;10489354;28;1758;-70
2022/05/13 05:20:21;;;;;;;;;;;16.30;99.90;;;15.72;100.00;95969.50;10512461;28;1826;-70
2022/05/13 05:25:28;;;;;;;;;;;16.40;99.90;;;15.81;100.00;95967.69;10507949;28;1981;-70
2022/05/13 05:30:31;;;;;;;;;;;16.50;99.90;;;15.69;100.00;95968.19;10507670;28;1802;-70
2022/05/13 05:35:35;;;;;;;;;;;16.50;99.90;;;15.60;100.00;95976.19;10485282;28;1845;-69
2022/05/13 05:40:38;;;;;;;;;;;16.40;99.90;;;15.55;100.00;95995.25;10491260;28;1830;-71
2022/05/13 05:45:41;;;;;;;;;;;16.30;99.90;;;15.20;100.00;95993.97;10505348;28;1979;-71
2022/05/13 05:50:46;;;;;;;;;;;16.00;99.90;;;14.97;100.00;96001.13;10494283;28;1691;-70
2022/05/13 06:01:10;;;;;;;;;;;15.50;99.90;;;14.93;100.00;96016.34;10488222;28;2141;-71
2022/05/13 06:06:13;;;;;;;;;;;15.50;99.90;;;15.04;100.00;96011.59;10497781;28;2360;-72
2022/05/13 06:11:16;;;;;;;;;;;15.60;99.90;;;15.24;100.00;96019.38;10477773;28;2005;-70
2022/05/13 06:16:22;;;;;;;;;;;15.70;99.90;;;15.45;100.00;96000.84;10482688;28;1984;-71
2022/05/13 06:21:25;;;;;;;;;;;16.10;99.90;;;15.45;100.00;96011.69;10486424;28;1986;-70
2022/05/13 06:26:29;;;;;;;;;;;15.90;99.90;;;15.39;100.00;96002.03;10502451;28;1983;-71
2022/05/13 06:31:32;;;;;;;;;;;15.90;99.90;;;15.60;100.00;96008.72;10500997;28;1964;-71
2022/05/13 06:36:35;;;;;;;;;;;16.10;99.90;;;15.84;100.00;96005.03;10499930;28;1829;-71
2022/05/13 06:41:40;;;;;;;;;;;16.30;99.90;;;16.37;100.00;95999.06;10477717;28;1885;-76
2022/05/13 06:46:44;;;;;;;;;;;16.60;99.90;;;16.98;100.00;95987.59;10503791;28;1918;-76
2022/05/13 06:51:47;;;;;;;;;;;17.00;99.90;;;17.34;100.00;95977.78;10487170;28;1813;-77
2022/05/13 06:56:54;;;;;;;;;;;17.50;99.90;;;17.79;100.00;95971.13;10489372;28;1888;-78
2022/05/13 07:01:57;;;;;;;;;;;18.20;99.90;;;18.33;100.00;95977.19;10500225;28;1878;-76
2022/05/13 07:07:01;;;;;;;;;;;18.80;99.90;;;18.64;100.00;95968.09;10485825;28;1921;-72
2022/05/13 07:12:04;;;;;;;;;;;19.20;99.90;;;19.00;100.00;95956.88;10510279;28;1788;-72
2022/05/13 07:17:07;;;;;;;;;;;21.20;99.90;;;19.21;96.64;95945.28;10495943;28;1797;-74
2022/05/13 07:22:11;;;;;;;;;;;19.90;99.90;;;19.07;96.87;95961.84;10504789;28;1760;-74
2022/05/13 07:27:17;;;;;;;;;;;19.80;99.90;;;19.58;90.64;95960.13;10491653;28;1914;-74
2022/05/13 07:32:22;;;;;;;;;;;20.10;99.90;;;20.33;86.67;95950.28;10497474;28;1838;-74
2022/05/13 07:37:25;;;;;;;;;;;20.70;99.90;;;21.13;83.07;95947.41;10486804;28;1930;-74
2022/05/13 07:42:29;;;;;;;;;;;21.40;99.90;;;21.10;82.21;95952.72;10485176;28;1852;-77
2022/05/13 07:47:32;;;;;;;;;;;21.60;99.90;;;21.26;78.29;95953.72;10499923;28;1921;-74
2022/05/13 07:52:35;;;;;;;;;;;21.70;99.90;;;22.06;72.85;95956.78;10479991;28;2031;-73
2022/05/13 07:57:40;;;;;;;;;;;;;;;22.00;72.29;95952.69;10478011;28;2008;-73
2022/05/13 08:02:44;;;;;;;;;;;;;;;21.60;75.83;95947.06;10495878;28;1926;-74
2022/05/13 08:07:48;;;;;;;;;;;;;;;21.18;77.42;95949.91;10490390;28;1980;-75
2022/05/13 08:12:52;;;;;;;;;;;;;;;21.58;74.08;95946.63;10492252;28;1770;-72
2022/05/13 08:17:55;;;;;;;;;;;;;;;21.37;74.44;95946.69;10507986;28;1804;-73
2022/05/13 08:22:59;;;;;;;;;;;;;;;21.20;75.01;95942.19;10509114;28;1918;-74
2022/05/13 08:28:02;;;;;;;;;;;;;;;21.59;75.01;95943.53;10511404;28;1977;-73
2022/05/13 08:33:08;;;;;;;;;;;;;;;21.45;71.68;95943.06;10485646;28;2030;-73
2022/05/13 08:38:13;;;;;;;;;;;;;;;21.65;71.93;95932.38;10505711;28;2015;-80
2022/05/13 08:43:17;;;;;;;;;;;;;;;22.36;68.76;95934.66;10511573;28;1984;-79
2022/05/13 08:48:21;;;;;;;;;;;;;;;21.99;70.05;95937.41;10516606;28;1971;-77
2022/05/13 08:53:24;;;;;;;;;;;;;;;20.97;76.58;95922.63;10509881;28;1844;-80
2022/05/13 08:58:28;;;;;;;;;;;;;;;19.41;95.82;95937.25;10490878;28;1796;-79
2022/05/13 09:03:31;;;;;;;;;;;;;;;17.48;100.00;95938.50;10484066;28;1990;-71
2022/05/13 09:08:34;;;;;;;;;;;18.20;99.90;;;16.65;100.00;95968.00;10506936;28;1872;-73
2022/05/13 09:13:37;;;;;;;;;;;17.80;99.90;;;16.10;100.00;95968.16;10490472;28;1820;-75
2022/05/13 09:18:41;;;;;;;;;;;17.30;99.90;;;15.41;100.00;95989.00;10506792;28;1778;-74
2022/05/13 09:23:43;;;;;;;;;;;16.60;99.90;;;14.88;100.00;95995.56;10505637;28;1909;-73
2022/05/13 09:28:46;;;;;;;;;;;15.90;99.90;;;15.03;100.00;96026.22;10508225;28;1847;-73
2022/05/13 09:33:49;;;;;;;;;;;15.80;99.90;;;15.00;100.00;96019.47;10500423;28;1968;-72
2022/05/13 09:38:53;;;;;;;;;;;15.80;99.90;;;14.76;100.00;96013.38;10483150;28;2396;-73
2022/05/13 09:43:56;;;;;;;;;;;15.60;99.90;;;14.90;100.00;96022.38;10485372;28;1909;-73
2022/05/13 09:48:59;;;;;;;;;;;15.60;99.90;;;15.08;100.00;96024.25;10487157;28;1763;-73
2022/05/13 09:54:02;;;;;;;;;;;15.70;99.90;;;14.98;100.00;96012.78;10504372;28;1705;-72
2022/05/13 09:59:11;;;;;;;;;;;15.80;99.90;;;15.11;100.00;96031.75;10485173;28;1947;-73
2022/05/13 10:04:15;;;;;;;;;;;15.70;99.90;;;15.17;100.00;96053.34;10493469;28;1984;-72
2022/05/13 10:14:44;;;;;;;;;;;15.60;99.90;;;14.42;100.00;96017.09;10444052;28;1790;-73
2022/05/13 10:19:47;;;;;;;;;;;15.20;99.90;;;14.21;100.00;96027.38;10498787;28;1830;-73
2022/05/13 10:24:50;;;;;;;;;;;15.10;99.90;;;14.00;100.00;96050.34;10498738;28;1914;-73
2022/05/13 10:29:55;;;;;;;;;;;14.80;99.90;;;14.02;100.00;96062.47;10502431;28;1920;-74
2022/05/13 10:34:59;;;;;;;;;;;14.80;99.90;;;13.98;100.00;96056.03;10483929;28;1860;-73
2022/05/13 10:40:02;;;;;;;;;;;14.70;99.90;;;14.14;100.00;96074.78;10496284;28;1891;-75
2022/05/13 10:45:05;;;;;;;;;;;14.80;99.90;;;14.24;100.00;96063.81;10480789;28;1983;-74
2022/05/13 10:50:12;;;;;;;;;;;14.90;99.90;;;14.17;100.00;96085.00;10498297;28;1795;-73
2022/05/13 10:55:15;;;;;;;;;;;14.90;99.90;;;14.06;100.00;96079.75;10483929;28;1946;-76
2022/05/13 11:00:19;;;;;;;;;;;14.90;99.90;;;14.15;100.00;96088.00;10480494;28;1461;-76
2022/05/13 11:05:21;;;;;;;;;;;14.90;99.90;;;14.03;100.00;96085.69;10503009;28;1928;-72
2022/05/13 11:10:24;;;;;;;;;;;14.90;99.90;;;14.19;100.00;96077.44;10494203;28;1955;-71
2022/05/13 11:15:27;;;;;;;;;;;14.80;99.90;;;14.39;100.00;96068.25;10496612;28;1849;-72
2022/05/13 11:20:35;;;;;;;;;;;15.10;99.90;;;14.48;100.00;96080.88;10506213;28;1822;-70
2022/05/13 11:31:03;;;;;;;;;;;15.30;99.90;;;15.18;100.00;96072.00;10494280;28;2048;-72
2022/05/13 11:36:05;;;;;;;;;;;15.70;99.90;;;15.06;100.00;96068.94;10482396;28;1905;-72
2022/05/13 11:41:10;;;;;;;;;;;15.70;99.90;;;15.37;100.00;96070.06;10484839;28;1875;-70
2022/05/13 11:46:33;;;;;;;;;;;15.80;99.90;;;15.61;100.00;96061.00;10497677;28;1922;-73
2022/05/13 11:51:37;;;;;;;;;;;16.10;99.90;;;15.82;100.00;96059.53;10498932;28;2061;-75
2022/05/13 11:56:43;;;;;;;;;;;16.20;99.90;;;16.20;100.00;96030.31;10474780;28;1833;-75
2022/05/13 12:01:46;;;;;;;;;;;16.50;99.90;;;17.07;100.00;96031.13;10480161;28;1867;-75
2022/05/13 12:06:50;;;;;;;;;;;;;;;18.23;100.00;96025.66;10479783;28;1983;-74
2022/05/13 12:11:53;;;;;;;;;;;18.80;99.90;;;18.85;100.00;96009.94;10515995;28;1804;-74
2022/05/13 12:16:56;;;;;;;;;;;18.80;99.90;;;18.49;100.00;96020.28;10503259;28;1945;-75
2022/05/13 12:22:01;;;;;;;;;;;19.20;99.90;;;17.98;100.00;96025.25;10497180;28;1774;-76
2022/05/13 12:27:07;;;;;;;;;;;18.50;99.90;;;17.98;100.00;96024.47;10478462;28;1915;-74
2022/05/13 12:32:11;;;;;;;;;;;18.50;99.90;;;18.57;100.00;96019.47;10498444;28;1843;-74
2022/05/13 12:42:41;;;;;;;;;;;;;;;19.32;98.20;96028.31;10503612;28;1869;-75
2022/05/13 12:47:45;;;;;;;;;;;;;;;19.26;96.34;96016.78;10508647;28;2214;-75
2022/05/13 12:52:49;;;;;;;;;;;;;;;19.29;95.72;96018.88;10505465;28;1990;-76
2022/05/13 12:57:52;;;;;;;;;;;;;;;19.25;93.32;96019.84;10510092;28;1789;-75
2022/05/13 13:02:57;;;;;;;;;;;;;;;19.39;93.55;96010.34;10490057;28;2634;-74
2022/05/13 13:08:07;;;;;;;;;;;;;;;20.14;90.88;96020.88;10508059;28;1921;-74
2022/05/13 13:13:10;;;;;;;;;;;;;;;20.77;87.04;96011.69;10488889;28;1853;-74
2022/05/13 13:18:14;;;;;;;;;;;;;;;19.99;80.13;96014.06;10487307;28;1659;-73
2022/05/13 13:23:19;;;;;;;;;;;;;;;19.57;84.77;96007.59;10484283;28;1796;-73
2022/05/13 13:28:24;;;;;;;;;;;;;;;19.74;86.12;96012.22;10507070;28;1964;-73
2022/05/13 13:33:28;;;;;;;;;;;;;;;19.79;87.18;96017.50;10485350;28;1813;-73
2022/05/13 13:38:32;;;;;;;;;;;;;;;19.53;85.76;96006.63;10500052;28;1906;-75
2022/05/13 13:43:35;;;;;;;;;;;;;;;19.20;86.65;96003.66;10499917;28;2016;-74
2022/05/13 13:48:39;;;;;;;;;;;;;;;19.95;84.56;95991.25;10500545;28;1980;-75
2022/05/13 13:53:43;;;;;;;;;;;;;;;19.98;82.25;95980.50;10496599;28;1820;-71
2022/05/13 13:58:47;;;;;;;;;;;;;;;20.35;78.68;95969.84;10481350;28;1917;-72
2022/05/13 14:03:51;;;;;;;;;;;;;;;20.30;75.59;95978.25;10487218;28;1776;-71
2022/05/13 14:08:55;;;;;;;;;;;;;;;20.29;75.72;95973.91;10487194;28;2046;-71
2022/05/13 14:14:02;;;;;;;;;;;;;;;20.44;74.90;95967.88;10484722;28;1848;-72
2022/05/13 14:19:05;;;;;;;;;;;;;;;20.52;73.40;95967.03;10474888;28;2300;-71
2022/05/13 14:24:09;;;;;;;;;;;;;;;20.68;73.62;95959.06;10484878;28;1939;-72
2022/05/13 14:29:12;;;;;;;;;;;21.20;99.90;;;21.16;72.39;95959.59;10485089;28;1985;-72
2022/05/13 14:34:15;;;;;;;;;;;21.20;99.90;;;21.03;70.73;95959.53;10485751;28;1932;-72
2022/05/13 14:44:40;;;;;;;;;;;21.50;99.90;;;20.39;76.13;95951.69;10487655;28;1945;-72
2022/05/13 14:49:43;;;;;;;;;;;21.20;99.90;;;20.20;73.74;95956.78;10504101;28;1837;-71
2022/05/13 14:54:47;;;;;;;;;;;21.00;99.90;;;20.23;75.98;95953.38;10487198;28;1796;-73
2022/05/13 14:59:50;;;;;;;;;;;20.80;99.90;;;20.79;73.25;95951.22;10479955;28;1867;-72
2022/05/13 15:04:54;;;;;;;;;;;21.20;99.90;;;21.08;70.35;95938.63;10503153;28;1917;-72
2022/05/13 15:09:57;;;;;;;;;;;21.40;99.90;;;21.27;69.18;95931.50;10499794;28;1839;-72
2022/05/13 15:15:00;;;;;;;;;;;21.70;99.90;;;21.22;66.94;95945.38;10496181;28;1824;-72
2022/05/13 15:20:03;;;;;;;;;;;21.90;99.90;;;21.44;66.97;95941.47;10505732;28;2009;-72
2022/05/13 15:25:06;;;;;;;;;;;21.80;99.90;;;21.10;70.22;95942.59;10481607;28;1914;-72
2022/05/13 15:30:11;;;;;;;;;;;19.60;99.90;;;21.35;67.32;95948.97;10487193;28;1801;-72
2022/05/13 15:35:14;;;;;;;;;;;21.90;99.90;;;21.19;67.94;95934.31;10503781;28;1906;-71
2022/05/13 15:40:18;;;;;;;;;;;21.80;99.90;;;21.66;67.46;95942.19;10485926;28;1829;-72
2022/05/13 15:45:21;;;;;;;;;;;21.80;99.90;;;21.16;66.95;95940.44;10501757;28;1966;-72
2022/05/13 15:55:47;;;;;;;;;;;21.60;99.90;;;21.46;67.18;95928.25;10488813;28;1862;-71
2022/05/13 16:00:50;;;;;;;;;;;21.70;99.90;;;21.54;65.08;95937.50;10485732;28;1765;-72
2022/05/13 16:05:54;;;;;;;;;;;21.90;99.90;;;21.44;65.71;95935.19;10504109;28;1926;-70
2022/05/13 16:10:57;;;;;;;;;;;22.10;99.90;;;21.68;65.11;95942.63;10496003;28;1854;-71
2022/05/13 16:16:00;;;;;;;;;;;22.20;99.90;;;21.08;64.52;95938.63;10504116;28;1957;-71
2022/05/13 16:21:04;;;;;;;;;;;21.90;99.90;;;20.66;66.64;95930.47;10483021;28;1794;-70
2022/05/13 16:26:27;;;;;;;;;;;21.50;99.90;;;20.35;68.85;95926.16;10503151;28;2025;-71
2022/05/13 16:31:31;;;;;;;;;;;21.10;99.90;;;20.10;70.65;95927.13;10509096;28;1976;-72
2022/05/13 16:37:41;;;;;;;;;;;20.90;99.90;;;19.87;72.03;95937.56;10491050;28;1817;-71
2022/05/13 16:41:59;;;;;;;;;;;20.60;99.90;;;20.16;68.47;95934.78;10488157;28;1985;-71
2022/05/13 16:47:02;;;;;;;;;;;20.70;99.90;;;20.07;69.42;95934.06;10506985;28;1973;-70
2022/05/13 16:52:08;;;;;;;;;;;20.80;99.90;;;20.21;68.37;95922.91;10503372;28;1781;-72
2022/05/13 16:57:12;;;;;;;;;;;20.80;99.90;;;20.21;69.66;95928.34;10515416;28;1828;-72
2022/05/13 17:02:15;;;;;;;;;;;20.80;99.90;;;19.62;72.25;95928.38;10509986;28;1654;-70
2022/05/13 17:07:19;;;;;;;;;;;20.50;99.90;;;19.44;71.82;95922.94;10486217;28;1975;-71
2022/05/13 17:17:43;;;;;;;;;;;20.20;99.90;;;19.27;74.01;95925.72;10489394;28;1843;-71
2022/05/13 17:22:46;;;;;;;;;;;20.10;99.90;;;19.15;74.42;95928.34;10492533;28;2028;-71
2022/05/13 17:27:50;;;;;;;;;;;19.90;99.90;;;19.15;74.57;95929.13;10503888;28;1909;-70
2022/05/13 17:32:54;;;;;;;;;;;19.90;99.90;;;18.99;74.50;95930.75;10508777;28;1830;-72
2022/05/13 17:37:58;;;;;;;;;;;19.80;99.90;;;18.79;76.19;95934.97;10489910;28;1866;-72
2022/05/13 17:43:01;;;;;;;;;;;19.70;99.90;;;18.59;76.58;95930.94;10495902;28;1812;-72
2022/05/13 17:48:05;;;;;;;;;;;19.50;99.90;;;18.50;76.16;95932.84;10489008;28;1995;-71
2022/05/13 17:53:08;;;;;;;;;;;19.40;99.90;;;18.37;77.12;95940.03;10508267;28;1898;-71
2022/05/13 17:58:12;;;;;;;;;;;19.30;99.90;;;18.29;77.16;95943.56;10518746;28;1873;-71
2022/05/13 18:03:15;;;;;;;;;;;19.20;99.90;;;18.21;77.31;95949.81;10486172;28;1840;-72
2022/05/13 18:08:19;;;;;;;;;;;19.00;99.90;;;18.12;78.39;95954.41;10491811;28;2009;-71
2022/05/13 18:13:22;;;;;;;;;;;19.00;99.90;;;17.84;81.08;95953.88;10500574;28;1953;-71
2022/05/13 18:18:31;;;;;;;;;;;18.90;99.90;;;17.72;82.17;95967.25;10491516;28;1898;-71
2022/05/13 18:23:34;;;;;;;;;;;18.70;99.90;;;17.51;84.02;95973.22;10478315;28;1883;-71
2022/05/13 18:28:38;;;;;;;;;;;18.50;99.90;;;17.34;86.72;95966.91;10514752;28;1980;-72
2022/05/13 18:33:41;;;;;;;;;;;18.40;99.90;;;17.20;87.73;95981.38;10511181;28;1777;-71
2022/05/13 18:38:44;;;;;;;;;;;18.30;99.90;;;16.99;90.41;95981.09;10495183;28;1893;-71
2022/05/13 18:49:08;;;;;;;;;;;18.00;99.90;;;16.61;93.78;95998.81;10488621;28;1980;-72
2022/05/13 18:54:12;;;;;;;;;;;17.80;99.90;;;16.45;96.68;96009.19;10499672;28;1857;-71
2022/05/13 18:59:15;;;;;;;;;;;17.60;99.90;;;16.26;98.19;96019.38;10491046;28;1997;-71
2022/05/13 19:04:19;;;;;;;;;;;17.40;99.90;;;16.06;100.00;96028.72;10503238;28;1892;-71
2022/05/13 19:09:22;;;;;;;;;;;17.30;99.90;;;15.91;100.00;96035.25;10504964;28;2204;-72
2022/05/13 19:14:25;;;;;;;;;;;17.10;99.90;;;15.82;100.00;96037.06;10509537;28;1812;-71
2022/05/13 19:19:31;;;;;;;;;;;17.10;99.90;;;15.76;100.00;96030.91;10502697;28;1843;-72
2022/05/13 19:24:34;;;;;;;;;;;17.10;99.90;;;15.63;100.00;96029.81;10509415;28;1968;-70
2022/05/13 19:29:37;;;;;;;;;;;16.90;99.90;;;15.53;100.00;96038.09;10495489;28;1925;-73
2022/05/13 19:34:40;;;;;;;;;;;16.80;99.90;;;15.40;100.00;96041.59;10497172;28;1806;-71
2022/05/13 19:39:43;;;;;;;;;;;16.70;99.90;;;15.31;100.00;96048.78;10508172;28;1865;-72
2022/05/13 19:44:46;;;;;;;;;;;16.60;99.90;;;15.28;100.00;96043.97;10493100;28;1802;-72
2022/05/13 19:49:49;;;;;;;;;;;16.50;99.90;;;15.11;100.00;96053.41;10483664;28;1997;-70
2022/05/13 19:54:52;;;;;;;;;;;16.40;99.90;;;15.07;100.00;96049.69;10511447;28;1747;-70
2022/05/13 19:59:56;;;;;;;;;;;16.30;99.90;;;14.93;100.00;96042.63;10487481;28;2299;-71
2022/05/13 20:15:40;;;;;;;;;;;15.90;99.90;;;14.60;100.00;96046.06;10498157;28;1854;-70
2022/05/13 20:26:04;;;;;;;;;;;15.70;99.90;;;14.49;100.00;96049.22;10491349;28;1923;-71
2022/05/13 20:31:07;;;;;;;;;;;15.60;99.90;;;14.34;100.00;96050.19;10483003;28;1813;-71
2022/05/13 20:36:11;;;;;;;;;;;15.50;99.90;;;14.31;100.00;96053.47;10484671;28;1874;-71
2022/05/13 20:41:14;;;;;;;;;;;15.30;99.90;;;14.22;100.00;96063.31;10488356;28;1787;-71
2022/05/13 20:46:21;;;;;;;;;;;15.40;99.90;;;14.13;100.00;96065.06;10510552;28;1913;-71
2022/05/13 20:51:25;;;;;;;;;;;15.30;99.90;;;14.02;100.00;96078.69;10486256;28;3479;-71
2022/05/13 20:56:28;;;;;;;;;;;15.20;99.90;;;13.96;100.00;96079.84;10498309;28;2044;-71
2022/05/13 21:01:31;;;;;;;;;;;15.10;99.90;;;14.11;100.00;96088.84;10511872;28;1695;-72
2022/05/13 21:06:34;;;;;;;;;;;15.10;99.90;;;14.34;100.00;96101.56;10503698;28;1914;-72
2022/05/13 21:11:38;;;;;;;;;;;14.90;99.90;;;14.52;100.00;96090.00;10510141;28;1854;-71
2022/05/13 21:16:41;;;;;;;;;;;15.40;99.90;;;14.57;100.00;96089.94;10490870;28;1857;-71
2022/05/13 21:21:43;;;;;;;;;;;15.50;99.90;;;14.46;100.00;96080.34;10510268;28;1770;-68
2022/05/13 21:26:48;;;;;;;;;;;15.50;99.90;;;14.27;100.00;96082.19;10505532;28;1910;-70
2022/05/13 21:37:14;;;;;;;;;;;15.30;99.90;;;13.98;100.00;96080.34;10492828;28;1904;-70
2022/05/13 21:42:17;;;;;;;;;;;15.10;99.90;;;13.94;100.00;96075.81;10501979;28;1828;-71
2022/05/13 21:47:21;;;;;;;;;;;15.10;99.90;;;13.78;100.00;96077.88;10509401;28;1906;-71
2022/05/13 21:52:25;;;;;;;;;;;14.90;99.90;;;13.74;100.00;96077.66;10478773;28;1834;-70
2022/05/13 21:57:29;;;;;;;;;;;14.80;99.90;;;13.65;100.00;96075.84;10492323;28;1912;-70
2022/05/13 22:02:32;;;;;;;;;;;14.90;99.90;;;13.55;100.00;96086.75;10499954;28;1754;-70
2022/05/13 22:07:34;;;;;;;;;;;14.90;99.90;;;13.47;100.00;96078.16;10487139;28;1902;-71
2022/05/13 22:12:37;;;;;;;;;;;14.50;99.90;;;13.45;100.00;96083.06;10486644;28;1926;-70
2022/05/13 22:17:40;;;;;;;;;;;14.50;99.90;;;13.40;100.00;96095.78;10490505;28;1861;-70
2022/05/13 22:22:43;;;;;;;;;;;14.40;99.90;;;13.34;100.00;96095.03;10499760;28;1847;-70
2022/05/13 22:27:47;;;;;;;;;;;14.50;99.90;;;13.31;100.00;96100.19;10486390;28;1910;-70
2022/05/13 22:32:51;;;;;;;;;;;14.50;99.90;;;13.23;100.00;96109.69;10500645;28;1948;-70
2022/05/13 22:37:54;;;;;;;;;;;14.40;99.90;;;13.24;100.00;96112.13;10503764;28;1826;-70
2022/05/13 22:42:58;;;;;;;;;;;14.40;99.90;;;13.28;100.00;96112.34;10499494;28;1842;-70
2022/05/13 22:48:03;;;;;;;;;;;14.40;99.90;;;13.33;100.00;96115.03;10501355;28;1917;-69
2022/05/13 22:53:06;;;;;;;;;;;14.30;99.90;;;13.39;100.00;96118.47;10488271;28;1821;-69
2022/05/13 22:58:09;;;;;;;;;;;14.40;99.90;;;13.33;100.00;96120.41;10492333;28;1880;-69
2022/05/13 23:03:12;;;;;;;;;;;14.40;99.90;;;13.32;100.00;96113.41;10499716;28;2019;-69
2022/05/13 23:13:36;;;;;;;;;;;14.30;99.90;;;13.23;100.00;96107.00;10490784;28;1804;-70
2022/05/13 23:18:39;;;;;;;;;;;14.30;99.90;;;13.19;100.00;96103.22;10483512;28;1881;-69
2022/05/13 23:23:46;;;;;;;;;;;14.30;99.90;;;13.05;100.00;96094.97;10499818;28;1917;-70
2022/05/13 23:28:49;;;;;;;;;;;14.20;99.90;;;12.99;100.00;96094.19;10482353;28;1980;-70
2022/05/13 23:33:52;;;;;;;;;;;14.10;99.90;;;12.97;100.00;96107.16;10505858;28;1774;-69
2022/05/13 23:38:55;;;;;;;;;;;14.10;99.90;;;12.93;100.00;96106.13;10509763;28;1771;-70
2022/05/13 23:43:58;;;;;;;;;;;14.10;99.90;;;12.87;100.00;96112.63;10490404;28;2196;-70
2022/05/13 23:49:03;;;;;;;;;;;13.80;99.90;;;12.80;100.00;96114.81;10502955;28;1917;-70
2022/05/13 23:59:23;;;;;;;;;;;13.70;99.90;;;12.98;100.00;96107.97;10465761;28;1796;-70
